Tropical Cyclones
[Index]
Main Index Home Page Stock Weather Photos Extreme Storms Discussion Storm News and Storm Chasing Reports Tropical Cyclones / Hurricanes / Typhoons Weather Data and Links Wild Fires / Bushfires Weather Observation Techniques Weather Picture Catalogue Tornado Pictures and Reports Stock Video Footage and DVDs for sale
Season 1982-1983 Tropical Cyclone ELINAH Track Map
Season 1982-1983 Summaries: [BoM-AU] [JTWC-AU] [JTWC-SIO] [JTWC-SPAC] [JTWC-SH]
<<- Previous TC | JTWC 1982-1983 Season | Next TC ->>

click for intensity scale information  Lat/long Grid: Show Hide

 Date Labels: Show Hide

Joint Typhoon Warning Centre Cyclone Data

Name: ELINAH

10 Jan 1983 00:00 UTC to 16 Jan 1983 12:00 UTC

    date/time    lat    long     hPa   cat  kts
1983-01-10 00    8.8    47.2                  25          
1983-01-10 06    8.9    45.7                  25          
1983-01-10 12    9.4    44.8                  25          
1983-01-10 18   10.2    44.3                  30          
1983-01-11 00   11.0    43.8                  35          
1983-01-11 06   11.8    43.4            1     40          
1983-01-11 12   12.6    42.9            1     45          
1983-01-11 18   13.2    42.5            1     50          
1983-01-12 00   13.8    42.0            2     60          
1983-01-12 06   14.7    41.4            2     65          
1983-01-12 12   15.6    40.7            2     65          
1983-01-12 18   16.3    40.3            2     65          
1983-01-13 00   17.0    40.0            2     60          
1983-01-13 06   17.6    39.3            2     60          
1983-01-13 12   18.1    38.6            2     55          
1983-01-13 18   18.6    38.8            1     50          
1983-01-14 00   19.0    39.0            1     45          
1983-01-14 06   19.6    38.8            1     45          
1983-01-14 12   20.1    38.5            1     40          
1983-01-14 18   20.2    38.1            1     40          
1983-01-15 00   20.3    37.9                  35          
1983-01-15 06   20.5    38.1                  35          
1983-01-15 12   20.6    38.5                  30          
1983-01-15 18   20.5    38.8                  30          
1983-01-16 00   20.2    39.0                  25          
1983-01-16 06   19.9    39.1                  25          
1983-01-16 12   19.6    39.0                  25          
Winds are 1-min average.

Tropical cyclone tracks developed by Michael Bath using data from the Joint Typhoon Warning Centre Best Tracks and Google Maps.


[Australian Severe Weather index] [Copyright Notice] [Email Contacts] [Search This Site] [Privacy Policy]
Document: tropical_cyclone_elinah.htm Updated: 18 September 2016